createdAt,value
2018-05-07T00:01:27.252Z,15.70
2018-05-07T00:03:54.717Z,15.70
2018-05-07T00:06:22.154Z,15.70
2018-05-07T00:08:49.604Z,15.70
2018-05-07T00:11:17.040Z,15.60
2018-05-07T00:13:45.264Z,15.60
2018-05-07T00:16:12.703Z,15.60
2018-05-07T00:18:40.149Z,15.60
2018-05-07T00:21:07.588Z,15.60
2018-05-07T00:23:35.028Z,15.50
2018-05-07T00:26:03.245Z,15.50
2018-05-07T00:28:30.700Z,15.50
2018-05-07T00:30:58.151Z,15.50
2018-05-07T00:33:25.599Z,15.40
2018-05-07T00:35:53.041Z,15.40
2018-05-07T00:38:20.483Z,15.30
2018-05-07T00:40:48.691Z,15.20
2018-05-07T00:43:16.143Z,15.20
2018-05-07T00:45:43.589Z,15.10
2018-05-07T00:48:11.058Z,15.00
2018-05-07T00:50:38.498Z,15.00
2018-05-07T00:53:05.954Z,14.90
2018-05-07T00:55:33.389Z,14.90
2018-05-07T00:58:01.604Z,14.80
2018-05-07T01:00:29.048Z,14.80
2018-05-07T01:02:56.503Z,14.80
2018-05-07T01:05:23.942Z,14.70
2018-05-07T01:07:51.396Z,14.70
2018-05-07T01:10:18.866Z,14.70
2018-05-07T01:12:46.400Z,14.70
2018-05-07T01:15:13.770Z,14.70
2018-05-07T01:17:41.225Z,14.70
2018-05-07T01:20:08.670Z,14.70
2018-05-07T01:22:36.120Z,14.70
2018-05-07T01:25:04.358Z,14.70
2018-05-07T01:27:31.792Z,14.70
2018-05-07T01:29:59.254Z,14.70
2018-05-07T01:32:26.702Z,14.70
2018-05-07T01:34:54.151Z,14.70
2018-05-07T01:37:21.607Z,14.70
2018-05-07T01:39:49.075Z,14.70
2018-05-07T01:42:16.499Z,14.70
2018-05-07T01:44:43.959Z,14.70
2018-05-07T01:47:11.397Z,14.60
2018-05-07T01:49:38.844Z,14.60
2018-05-07T01:52:07.065Z,14.50
2018-05-07T01:54:34.524Z,14.50
2018-05-07T01:57:01.963Z,14.50
2018-05-07T01:59:29.419Z,14.50
2018-05-07T02:01:56.853Z,14.50
2018-05-07T02:04:24.302Z,14.50
2018-05-07T02:06:52.525Z,14.40
2018-05-07T02:09:19.975Z,14.40
2018-05-07T02:11:47.412Z,14.40
2018-05-07T02:14:14.851Z,14.40
2018-05-07T02:16:42.292Z,14.50
2018-05-07T02:19:10.507Z,14.50
2018-05-07T02:21:37.946Z,14.50
2018-05-07T02:24:05.390Z,14.50
2018-05-07T02:26:32.843Z,14.50
2018-05-07T02:29:00.284Z,14.50
2018-05-07T02:31:28.580Z,14.40
2018-05-07T02:33:55.940Z,14.40
2018-05-07T02:36:23.383Z,14.40
2018-05-07T02:38:50.885Z,14.40
2018-05-07T02:41:19.049Z,14.40
2018-05-07T02:43:46.481Z,14.40
2018-05-07T02:46:13.931Z,14.40
2018-05-07T02:48:41.369Z,14.40
2018-05-07T02:51:08.813Z,14.40
2018-05-07T02:53:37.012Z,14.40
2018-05-07T02:56:04.465Z,14.30
2018-05-07T02:58:31.904Z,14.30
2018-05-07T03:01:00.116Z,14.30
2018-05-07T03:03:27.553Z,14.30
2018-05-07T03:05:55.016Z,14.30
2018-05-07T03:08:22.437Z,14.20
2018-05-07T03:10:50.654Z,14.20
2018-05-07T03:13:18.085Z,14.20
2018-05-07T03:15:45.534Z,14.20
2018-05-07T03:18:12.970Z,14.20
2018-05-07T03:20:41.188Z,14.10
2018-05-07T03:23:08.619Z,14.10
2018-05-07T03:25:36.068Z,14.10
2018-05-07T03:28:04.272Z,14.00
2018-05-07T03:30:31.712Z,14.00
2018-05-07T03:32:59.159Z,14.00
2018-05-07T03:35:26.803Z,13.90
2018-05-07T03:37:55.009Z,13.80
2018-05-07T03:40:22.459Z,13.80
2018-05-07T03:42:49.907Z,13.80
2018-05-07T03:45:17.349Z,13.80
2018-05-07T03:47:45.570Z,13.70
2018-05-07T03:50:13.832Z,13.70
2018-05-07T03:52:41.283Z,13.70
2018-05-07T03:55:08.738Z,13.60
2018-05-07T03:57:36.197Z,13.50
2018-05-07T04:00:03.627Z,13.50
2018-05-07T04:02:31.068Z,13.40
2018-05-07T04:04:59.329Z,13.30
2018-05-07T04:07:26.854Z,13.20
2018-05-07T04:09:54.225Z,13.20
2018-05-07T04:12:21.677Z,13.10
2018-05-07T04:14:49.875Z,13.00
2018-05-07T04:17:29.913Z,13.00
2018-05-07T04:23:10.694Z,13.00
2018-05-07T04:25:38.273Z,12.90
2018-05-07T04:28:06.485Z,12.80
2018-05-07T04:30:33.933Z,12.80
2018-05-07T04:33:01.381Z,12.80
2018-05-07T04:35:28.829Z,12.80
2018-05-07T04:37:56.277Z,12.90
2018-05-07T04:40:24.499Z,13.00
2018-05-07T04:42:51.937Z,13.00
2018-05-07T04:45:19.391Z,13.00
2018-05-07T04:47:46.828Z,13.00
2018-05-07T04:50:14.263Z,13.00
2018-05-07T04:52:42.478Z,12.90
2018-05-07T04:55:10.013Z,12.90
2018-05-07T04:57:37.386Z,12.90
2018-05-07T05:00:04.844Z,12.90
2018-05-07T05:02:32.291Z,12.90
2018-05-07T05:04:59.755Z,12.80
2018-05-07T05:07:27.210Z,12.80
2018-05-07T05:09:54.660Z,12.80
2018-05-07T05:12:22.128Z,12.70
2018-05-07T05:14:49.571Z,12.70
2018-05-07T05:17:17.032Z,12.60
2018-05-07T05:19:44.468Z,12.60
2018-05-07T05:22:11.929Z,12.60
2018-05-07T05:24:39.373Z,12.50
2018-05-07T05:27:06.830Z,12.50
2018-05-07T05:29:35.445Z,12.50
2018-05-07T05:32:02.897Z,12.50
2018-05-07T05:34:30.337Z,12.50
2018-05-07T05:36:57.796Z,12.50
2018-05-07T05:39:25.253Z,12.50
2018-05-07T05:41:52.717Z,12.50
2018-05-07T05:44:20.169Z,12.50
2018-05-07T05:46:47.613Z,12.50
2018-05-07T05:49:15.450Z,12.50
2018-05-07T05:51:42.885Z,12.50
2018-05-07T05:54:10.324Z,12.50
2018-05-07T05:56:37.777Z,12.50
2018-05-07T05:59:05.230Z,12.50
2018-05-07T06:01:33.532Z,12.50
2018-05-07T06:04:01.001Z,12.50
2018-05-07T06:06:28.440Z,12.60
2018-05-07T06:08:55.965Z,12.60
2018-05-07T06:11:24.132Z,12.70
2018-05-07T06:13:51.583Z,12.70
2018-05-07T06:16:19.044Z,12.70
2018-05-07T06:18:46.513Z,12.80
2018-05-07T06:21:14.049Z,12.80
2018-05-07T06:23:41.416Z,12.80
2018-05-07T06:26:08.860Z,12.80
2018-05-07T06:28:36.315Z,12.90
2018-05-07T06:31:03.783Z,12.90
2018-05-07T06:33:31.247Z,12.90
2018-05-07T06:35:58.649Z,13.00
2018-05-07T06:38:26.870Z,13.10
2018-05-07T06:40:54.311Z,13.10
2018-05-07T06:43:21.761Z,13.20
2018-05-07T06:45:49.232Z,13.20
2018-05-07T06:48:17.405Z,13.30
2018-05-07T06:50:44.849Z,13.30
2018-05-07T06:53:12.301Z,13.40
2018-05-07T06:55:39.733Z,13.40
2018-05-07T06:58:07.197Z,13.50
2018-05-07T07:00:34.658Z,13.50
2018-05-07T07:03:02.190Z,13.60
2018-05-07T07:05:29.552Z,13.60
2018-05-07T07:07:57.814Z,13.70
2018-05-07T07:10:25.218Z,13.70
2018-05-07T07:12:52.653Z,13.80
2018-05-07T07:15:20.126Z,13.90
2018-05-07T07:17:47.589Z,13.90
2018-05-07T07:20:15.033Z,14.00
2018-05-07T07:22:42.482Z,14.00
2018-05-07T07:25:09.925Z,14.10
2018-05-07T07:27:37.387Z,14.20
2018-05-07T07:30:04.832Z,14.20
2018-05-07T07:32:33.048Z,14.40
2018-05-07T07:35:00.494Z,14.30
2018-05-07T07:37:27.933Z,14.40
2018-05-07T07:39:55.378Z,14.50
2018-05-07T07:42:22.816Z,14.60
2018-05-07T07:44:51.057Z,14.70
2018-05-07T07:47:18.545Z,14.70
2018-05-07T07:49:45.962Z,14.70
2018-05-07T07:52:13.410Z,14.80
2018-05-07T07:54:40.855Z,14.80
2018-05-07T07:57:08.301Z,14.90
2018-05-07T07:59:35.765Z,15.00
2018-05-07T08:02:03.215Z,15.00
2018-05-07T08:04:30.659Z,15.10
2018-05-07T08:06:58.106Z,15.10
2018-05-07T08:09:25.544Z,15.20
2018-05-07T08:11:53.804Z,15.40
2018-05-07T08:14:21.250Z,15.40
2018-05-07T08:16:48.706Z,15.50
2018-05-07T08:19:16.576Z,15.50
2018-05-07T08:21:44.018Z,15.60
2018-05-07T08:24:11.464Z,15.60
2018-05-07T08:26:38.929Z,15.60
2018-05-07T08:29:06.381Z,15.70
2018-05-07T08:31:34.793Z,15.70
2018-05-07T08:34:03.015Z,15.80
2018-05-07T08:36:30.486Z,15.80
2018-05-07T08:38:57.916Z,15.90
2018-05-07T08:41:25.473Z,15.90
2018-05-07T08:43:52.828Z,16.00
2018-05-07T08:46:20.265Z,16.00
2018-05-07T08:48:47.714Z,16.10
2018-05-07T08:51:15.923Z,16.10
2018-05-07T08:53:43.681Z,16.10
2018-05-07T08:56:11.143Z,16.20
2018-05-07T08:58:38.580Z,16.20
2018-05-07T09:01:06.025Z,16.30
2018-05-07T09:03:33.468Z,16.30
2018-05-07T09:06:01.697Z,16.40
2018-05-07T09:08:29.144Z,16.40
2018-05-07T09:10:56.592Z,16.50
2018-05-07T09:13:24.046Z,16.60
2018-05-07T09:15:51.497Z,16.60
2018-05-07T09:18:18.942Z,16.60
2018-05-07T09:20:46.392Z,16.70
2018-05-07T09:23:13.833Z,16.70
2018-05-07T09:25:41.281Z,16.80
2018-05-07T09:28:09.490Z,16.90
2018-05-07T09:30:36.967Z,16.80
2018-05-07T09:33:04.417Z,16.90
2018-05-07T09:35:31.874Z,16.90
2018-05-07T09:37:59.324Z,17.00
2018-05-07T09:40:26.777Z,17.10
2018-05-07T09:42:54.230Z,17.10
2018-05-07T09:45:21.685Z,17.10
2018-05-07T09:47:49.130Z,17.10
2018-05-07T09:50:16.591Z,17.20
2018-05-07T09:52:44.035Z,17.20
2018-05-07T09:55:11.491Z,17.30
2018-05-07T09:57:38.949Z,17.30
2018-05-07T10:00:06.404Z,17.30
2018-05-07T10:02:33.924Z,17.30
2018-05-07T10:05:01.327Z,17.30
2018-05-07T10:07:28.766Z,17.40
2018-05-07T10:09:56.211Z,17.50
2018-05-07T10:12:23.657Z,17.50
2018-05-07T10:14:51.878Z,17.60
2018-05-07T10:17:19.326Z,17.60
2018-05-07T10:19:46.781Z,17.70
2018-05-07T10:22:14.250Z,17.80
2018-05-07T10:24:41.689Z,17.80
2018-05-07T10:27:09.136Z,17.90
2018-05-07T10:29:36.600Z,17.90
2018-05-07T10:32:04.058Z,17.90
2018-05-07T10:34:31.506Z,18.00
2018-05-07T10:36:58.949Z,18.00
2018-05-07T10:39:26.397Z,18.10
2018-05-07T10:41:53.857Z,18.10
2018-05-07T10:44:21.307Z,18.20
2018-05-07T10:46:48.808Z,18.20
2018-05-07T10:49:16.697Z,18.10
2018-05-07T10:51:44.133Z,18.20
2018-05-07T10:54:11.581Z,18.20
2018-05-07T10:56:39.802Z,18.30
2018-05-07T10:59:08.013Z,18.30
2018-05-07T11:01:35.485Z,18.30
2018-05-07T11:04:02.916Z,18.40
2018-05-07T11:06:30.370Z,18.60
2018-05-07T11:08:57.826Z,18.70
2018-05-07T11:11:25.276Z,18.70
2018-05-07T11:13:52.723Z,18.60
2018-05-07T11:16:20.176Z,18.70
2018-05-07T11:18:47.617Z,18.70
2018-05-07T11:21:15.828Z,18.70
2018-05-07T11:23:43.270Z,18.70
2018-05-07T11:26:10.741Z,18.70
2018-05-07T11:28:38.187Z,18.70
2018-05-07T11:31:05.673Z,18.70
2018-05-07T11:33:33.102Z,18.70
2018-05-07T11:36:00.554Z,18.70
2018-05-07T11:38:27.992Z,18.80
2018-05-07T11:40:55.448Z,18.80
2018-05-07T11:43:22.893Z,18.80
2018-05-07T11:45:51.110Z,19.10
2018-05-07T11:48:18.561Z,19.10
2018-05-07T11:50:46.116Z,19.10
2018-05-07T11:53:14.354Z,19.10
2018-05-07T11:55:41.737Z,19.10
2018-05-07T11:58:09.199Z,19.20
2018-05-07T12:00:36.696Z,19.10
2018-05-07T12:03:04.136Z,19.20
2018-05-07T12:05:31.602Z,19.10
2018-05-07T12:07:59.070Z,19.20
2018-05-07T12:10:26.493Z,19.30
2018-05-07T12:12:53.951Z,19.40
2018-05-07T12:15:21.391Z,19.50
2018-05-07T12:17:48.844Z,19.50
2018-05-07T12:20:17.277Z,19.50
2018-05-07T12:22:45.501Z,19.50
2018-05-07T12:25:12.962Z,19.50
2018-05-07T12:27:40.415Z,19.50
2018-05-07T12:30:07.859Z,19.50
2018-05-07T12:32:35.324Z,19.50
2018-05-07T12:35:02.763Z,19.50
2018-05-07T12:37:30.215Z,19.60
2018-05-07T12:39:57.652Z,19.70
2018-05-07T12:42:25.102Z,19.70
2018-05-07T12:44:53.317Z,19.80
2018-05-07T12:47:20.768Z,19.80
2018-05-07T12:49:48.222Z,19.90
2018-05-07T12:52:15.674Z,19.80
2018-05-07T12:54:43.112Z,19.80
2018-05-07T12:57:10.567Z,20.00
2018-05-07T12:59:38.008Z,20.00
2018-05-07T13:02:06.212Z,20.00
2018-05-07T13:04:33.659Z,20.00
2018-05-07T13:07:01.115Z,20.10
2018-05-07T13:09:28.578Z,20.20
2018-05-07T13:11:56.022Z,20.30
2018-05-07T13:14:23.462Z,20.40
2018-05-07T13:16:50.931Z,20.50
2018-05-07T13:19:18.364Z,20.40
2018-05-07T13:21:46.579Z,20.30
2018-05-07T13:24:14.022Z,20.30
2018-05-07T13:26:41.959Z,20.20
2018-05-07T13:29:09.354Z,20.20
2018-05-07T13:31:36.821Z,20.20
2018-05-07T13:34:04.260Z,20.20
2018-05-07T13:36:31.715Z,20.30
2018-05-07T13:38:59.173Z,20.30
2018-05-07T13:41:26.611Z,20.40
2018-05-07T13:43:54.082Z,20.50
2018-05-07T13:46:21.530Z,20.60
2018-05-07T13:48:48.983Z,20.70
2018-05-07T13:51:16.424Z,20.70
2018-05-07T13:53:43.877Z,20.80
2018-05-07T13:56:12.077Z,20.70
2018-05-07T13:58:39.533Z,20.70
2018-05-07T14:01:06.989Z,20.70
2018-05-07T14:03:34.452Z,20.60
2018-05-07T14:06:01.888Z,20.70
2018-05-07T14:08:29.345Z,20.70
2018-05-07T14:10:56.776Z,20.70
2018-05-07T14:13:24.997Z,20.70
2018-05-07T14:15:52.452Z,20.70
2018-05-07T14:18:19.902Z,20.70
2018-05-07T14:20:47.349Z,20.70
2018-05-07T14:23:14.792Z,20.70
2018-05-07T14:25:42.260Z,20.80
2018-05-07T14:28:09.704Z,20.90
2018-05-07T14:30:37.155Z,21.20
2018-05-07T14:33:04.605Z,21.90
2018-05-07T14:35:32.086Z,22.90
2018-05-07T14:37:59.517Z,24.00
2018-05-07T14:40:26.958Z,25.30
2018-05-07T14:42:55.169Z,26.90
2018-05-07T14:45:22.614Z,26.80
2018-05-07T14:47:50.063Z,27.40
2018-05-07T14:50:17.937Z,27.70
2018-05-07T14:52:46.135Z,27.80
2018-05-07T14:55:13.577Z,27.80
2018-05-07T14:57:41.030Z,27.60
2018-05-07T15:00:08.729Z,27.30
2018-05-07T15:02:36.165Z,26.90
2018-05-07T15:05:03.624Z,26.50
2018-05-07T15:07:31.827Z,25.40
2018-05-07T15:09:59.281Z,25.30
2018-05-07T15:12:27.500Z,24.60
2018-05-07T15:14:54.954Z,24.50
2018-05-07T15:17:22.398Z,24.30
2018-05-07T15:19:49.861Z,24.00
2018-05-07T15:22:17.301Z,23.90
2018-05-07T15:24:46.614Z,23.70
2018-05-07T15:27:14.058Z,23.60
2018-05-07T15:29:41.505Z,23.60
2018-05-07T15:32:09.711Z,23.40
2018-05-07T15:34:37.204Z,23.40
2018-05-07T15:37:04.644Z,23.40
2018-05-07T15:39:32.105Z,23.40
2018-05-07T15:41:59.557Z,23.40
2018-05-07T15:44:27.014Z,23.40
2018-05-07T15:46:54.465Z,23.50
2018-05-07T15:49:21.915Z,23.60
2018-05-07T15:51:49.359Z,23.70
2018-05-07T15:54:16.808Z,23.90
2018-05-07T15:56:44.279Z,24.20
2018-05-07T15:59:11.767Z,24.60
2018-05-07T16:01:39.216Z,25.00
2018-05-07T16:04:06.751Z,25.30
2018-05-07T16:06:34.224Z,25.10
2018-05-07T16:09:01.673Z,24.80
2018-05-07T16:11:29.120Z,24.50
2018-05-07T16:13:56.584Z,24.10
2018-05-07T16:16:24.046Z,23.70
2018-05-07T16:18:51.471Z,23.40
2018-05-07T16:21:18.962Z,23.20
2018-05-07T16:23:46.374Z,23.00
2018-05-07T16:26:14.610Z,22.60
2018-05-07T16:28:42.808Z,22.50
2018-05-07T16:31:10.316Z,22.50
2018-05-07T16:33:37.701Z,22.40
2018-05-07T16:36:05.917Z,22.10
2018-05-07T16:38:33.419Z,22.10
2018-05-07T16:41:00.823Z,22.00
2018-05-07T16:43:28.291Z,21.90
2018-05-07T16:45:55.738Z,21.80
2018-05-07T16:48:23.182Z,21.70
2018-05-07T16:50:50.637Z,21.70
2018-05-07T16:53:18.096Z,21.60
2018-05-07T16:55:45.593Z,21.50
2018-05-07T16:58:14.558Z,21.40
2018-05-07T17:00:42.225Z,21.40
2018-05-07T17:03:09.767Z,21.30
2018-05-07T17:05:37.233Z,21.20
2018-05-07T17:08:04.685Z,21.20
2018-05-07T17:10:32.149Z,21.20
2018-05-07T17:12:59.591Z,21.10
2018-05-07T17:15:27.057Z,21.00
2018-05-07T17:17:54.525Z,21.00
2018-05-07T17:20:21.980Z,20.90
2018-05-07T17:22:49.463Z,20.90
2018-05-07T17:25:17.678Z,20.80
2018-05-07T17:27:45.130Z,20.80
2018-05-07T17:30:12.590Z,20.70
2018-05-07T17:32:40.041Z,20.60
2018-05-07T17:35:07.504Z,20.60
2018-05-07T17:37:34.958Z,20.50
2018-05-07T17:40:02.413Z,20.40
2018-05-07T17:42:29.864Z,20.40
2018-05-07T17:45:09.249Z,20.30
2018-05-07T17:47:48.970Z,20.30
2018-05-07T17:50:16.416Z,20.20
2018-05-07T17:52:43.869Z,20.10
2018-05-07T17:55:11.345Z,20.10
2018-05-07T17:57:38.789Z,20.00
2018-05-07T18:00:06.233Z,20.00
2018-05-07T18:02:33.695Z,20.00
2018-05-07T18:05:01.267Z,20.00
2018-05-07T18:07:28.603Z,20.00
2018-05-07T18:09:56.045Z,19.90
2018-05-07T18:12:23.492Z,19.90
2018-05-07T18:14:51.080Z,19.80
2018-05-07T18:17:18.394Z,19.80
2018-05-07T18:19:45.843Z,19.70
2018-05-07T18:22:13.302Z,19.70
2018-05-07T18:24:40.838Z,19.70
2018-05-07T18:27:08.296Z,19.70
2018-05-07T18:29:36.503Z,19.60
2018-05-07T18:32:04.032Z,19.60
2018-05-07T18:34:32.253Z,19.50
2018-05-07T18:36:59.719Z,19.50
2018-05-07T18:39:27.167Z,19.50
2018-05-07T18:41:54.618Z,19.40
2018-05-07T18:44:22.064Z,19.40
2018-05-07T18:46:49.529Z,19.30
2018-05-07T18:49:17.201Z,19.30
2018-05-07T18:51:44.657Z,19.20
2018-05-07T18:54:12.176Z,19.10
2018-05-07T18:56:39.886Z,19.10
2018-05-07T18:59:07.330Z,19.10
2018-05-07T19:01:35.177Z,19.00
2018-05-07T19:04:02.696Z,19.00
2018-05-07T19:06:30.933Z,18.90
2018-05-07T19:08:58.388Z,18.80
2018-05-07T19:11:25.838Z,18.80
2018-05-07T19:13:53.477Z,18.70
2018-05-07T19:16:20.949Z,18.70
2018-05-07T19:18:48.409Z,18.60
2018-05-07T19:21:15.853Z,18.60
2018-05-07T19:23:43.306Z,18.50
2018-05-07T19:26:10.753Z,18.50
2018-05-07T19:28:38.242Z,18.40
2018-05-07T19:31:05.733Z,18.40
2018-05-07T19:33:33.950Z,18.40
2018-05-07T19:36:01.458Z,18.30
2018-05-07T19:38:28.849Z,18.40
2018-05-07T19:40:56.290Z,18.40
2018-05-07T19:43:23.741Z,18.40
2018-05-07T19:45:51.181Z,18.40
2018-05-07T19:48:19.408Z,18.40
2018-05-07T19:50:46.860Z,18.40
2018-05-07T19:53:14.315Z,18.30
2018-05-07T19:55:41.836Z,18.40
2018-05-07T19:58:09.230Z,18.30
2018-05-07T20:00:36.779Z,18.30
2018-05-07T20:03:04.233Z,18.30
2018-05-07T20:05:31.691Z,18.30
2018-05-07T20:07:59.150Z,18.30
2018-05-07T20:10:26.614Z,18.30
2018-05-07T20:12:54.053Z,18.20
2018-05-07T20:15:21.499Z,18.20
2018-05-07T20:17:48.976Z,18.20
2018-05-07T20:20:16.400Z,18.20
2018-05-07T20:22:43.866Z,18.20
2018-05-07T20:25:11.324Z,18.10
2018-05-07T20:27:38.766Z,18.10
2018-05-07T20:30:06.219Z,18.10
2018-05-07T20:32:33.797Z,18.10
2018-05-07T20:35:01.279Z,18.10
2018-05-07T20:37:28.777Z,18.00
2018-05-07T20:39:56.201Z,18.00
2018-05-07T20:42:23.653Z,18.00
2018-05-07T20:44:51.114Z,17.90
2018-05-07T20:47:18.563Z,17.90
2018-05-07T20:49:46.017Z,17.90
2018-05-07T20:52:13.470Z,17.80
2018-05-07T20:54:40.934Z,17.80
2018-05-07T20:57:08.382Z,17.80
2018-05-07T20:59:35.846Z,17.70
2018-05-07T21:02:03.294Z,17.80
2018-05-07T21:04:30.749Z,17.70
2018-05-07T21:06:58.208Z,17.70
2018-05-07T21:09:25.675Z,17.60
2018-05-07T21:11:53.113Z,17.60
2018-05-07T21:14:20.570Z,17.60
2018-05-07T21:16:48.032Z,17.50
2018-05-07T21:19:15.756Z,17.50
2018-05-07T21:21:43.180Z,17.40
2018-05-07T21:24:11.418Z,17.30
2018-05-07T21:26:39.631Z,17.20
2018-05-07T21:29:07.846Z,17.20
2018-05-07T21:31:35.295Z,17.20
2018-05-07T21:34:02.761Z,17.20
2018-05-07T21:36:30.287Z,17.10
2018-05-07T21:38:57.665Z,17.10
2018-05-07T21:41:25.119Z,17.00
2018-05-07T21:43:52.583Z,17.00
2018-05-07T21:46:20.032Z,16.90
2018-05-07T21:48:47.489Z,16.90
2018-05-07T21:51:14.943Z,16.90
2018-05-07T21:53:43.158Z,16.80
2018-05-07T21:56:11.376Z,16.70
2018-05-07T21:58:39.144Z,16.70
2018-05-07T22:01:06.595Z,16.70
2018-05-07T22:03:34.061Z,16.70
2018-05-07T22:06:01.516Z,16.70
2018-05-07T22:08:28.961Z,16.80
2018-05-07T22:10:56.427Z,16.80
2018-05-07T22:13:23.872Z,16.80
2018-05-07T22:15:51.330Z,16.80
2018-05-07T22:18:18.783Z,16.90
2018-05-07T22:20:46.234Z,16.90
2018-05-07T22:23:13.688Z,16.90
2018-05-07T22:25:41.136Z,16.90
2018-05-07T22:28:08.578Z,17.00
2018-05-07T22:30:36.801Z,17.00
2018-05-07T22:33:04.250Z,17.00
2018-05-07T22:35:31.705Z,17.00
2018-05-07T22:37:59.145Z,17.00
2018-05-07T22:40:26.601Z,17.00
2018-05-07T22:42:54.058Z,17.00
2018-05-07T22:45:21.511Z,17.00
2018-05-07T22:47:48.957Z,17.00
2018-05-07T22:50:16.426Z,17.00
2018-05-07T22:52:43.872Z,17.00
2018-05-07T22:55:20.245Z,17.00
2018-05-07T22:57:47.690Z,17.00
2018-05-07T23:00:15.924Z,17.00
2018-05-07T23:02:43.369Z,16.90
2018-05-07T23:05:10.818Z,17.00
2018-05-07T23:07:38.270Z,16.90
2018-05-07T23:10:05.727Z,16.90
2018-05-07T23:12:33.169Z,16.90
2018-05-07T23:15:00.620Z,16.90
2018-05-07T23:17:28.073Z,16.90
2018-05-07T23:19:55.532Z,16.90
2018-05-07T23:22:22.973Z,16.90
2018-05-07T23:24:50.424Z,16.90
2018-05-07T23:27:17.877Z,16.90
2018-05-07T23:29:45.313Z,16.90
2018-05-07T23:32:12.775Z,16.90
2018-05-07T23:34:40.211Z,16.80
2018-05-07T23:37:08.432Z,16.80
2018-05-07T23:39:35.878Z,16.80
2018-05-07T23:42:03.338Z,16.80
2018-05-07T23:44:30.776Z,16.70
2018-05-07T23:46:58.232Z,16.70
2018-05-07T23:49:26.443Z,16.60
2018-05-07T23:51:53.894Z,16.60
2018-05-07T23:54:21.334Z,16.50
2018-05-07T23:56:48.780Z,16.50
2018-05-07T23:59:16.226Z,16.40
